Philadelphia, Pennsylvania
Traffic Map
Current Weather Conditions
Philadelphia, Pennsylvania
Broken Clouds
Broken Clouds
12°
Feels Like: 12°
Wind Chill: 12° Ceiling: 12000
Heat Index: 12° Visibility: 10mi
Dew Point: Wind: 5mph
Humidity: 66% Direction: 230° (SW)
Pressure: 29.99in Gusts: 0mph
Raw Report DataKPHL 221654Z 23004KT 10SM FEW090 BKN120 BKN150 BKN250 12/06 A2999 RMK AO2 SLP156 T01170056
Traffic Incident Summary
Active as of:
Severity:
Category:
InformationThere was an issue retrieving the traffic information for this location. Please try a different location or try again shortly.
Advertisements
Track Severe Weather on mobile